Time;durP1;ratioP1;P1;durP2;ratioP2;P2;SDS_P1;SDS_P2;PMS_P1;PMS_P2;Temp;Humidity;BMP_temperature;BMP_pressure;BME280_temperature;BME280_humidity;BME280_pressure;Samples;Min_cycle;Max_cycle;Signal;HPM_P1;HPM_P2
2022/10/08 00:01:17;;;;;;;33.40;22.80;;;;;;;10.13;97.42;98868.48;102644;1298;138408;-71
2022/10/08 00:03:49;;;;;;;33.10;22.00;;;;;;;10.13;97.32;98865.96;102479;1287;25538;-70
2022/10/08 00:06:33;;;;;;;32.40;22.60;;;;;;;10.12;97.63;98863.18;102532;1315;24366;-70
2022/10/08 00:09:04;;;;;;;36.40;22.30;;;;;;;10.11;97.67;98861.73;102516;1300;22487;-69
2022/10/08 00:11:37;;;;;;;32.30;21.60;;;;;;;10.08;97.21;98856.99;102545;1313;22488;-71
2022/10/08 00:14:05;;;;;;;34.50;22.70;;;;;;;10.03;96.91;98857.36;102507;1314;138464;-71
2022/10/08 00:16:37;;;;;;;33.80;23.40;;;;;;;10.00;97.03;98853.06;102501;1314;22609;-70
2022/10/08 00:19:07;;;;;;;33.60;23.90;;;;;;;9.97;97.20;98849.47;102374;1299;138780;-70
2022/10/08 00:21:36;;;;;;;34.10;23.10;;;;;;;9.96;97.66;98848.22;102690;1314;22490;-70
2022/10/08 00:24:05;;;;;;;34.20;23.90;;;;;;;9.94;97.63;98845.52;102629;1300;22485;-69
2022/10/08 00:26:34;;;;;;;38.10;24.70;;;;;;;9.95;98.04;98843.27;102441;1312;138615;-70
2022/10/08 00:29:07;;;;;;;36.50;24.20;;;;;;;9.96;98.38;98835.23;102422;1304;25404;-69
2022/10/08 00:31:39;;;;;;;36.00;24.80;;;;;;;9.98;98.86;98833.83;102595;1297;138792;-70
2022/10/08 00:34:12;;;;;;;37.30;25.30;;;;;;;10.01;99.08;98827.45;102596;1313;24431;-71
2022/10/08 00:36:42;;;;;;;34.40;24.00;;;;;;;10.03;99.43;98831.78;102455;1314;138482;-69
2022/10/08 00:39:14;;;;;;;31.70;21.70;;;;;;;10.03;98.82;98828.90;102544;1314;24307;-70
2022/10/08 00:41:45;;;;;;;27.50;20.40;;;;;;;9.97;97.28;98831.55;102535;1314;24045;-69
2022/10/08 00:44:49;;;;;;;31.50;20.70;;;;;;;9.83;96.19;98833.80;102538;1307;138323;-71
2022/10/08 00:47:32;;;;;;;29.30;21.30;;;;;;;9.70;96.16;98828.66;102571;1315;25504;-70
2022/10/08 00:50:18;;;;;;;32.40;22.30;;;;;;;9.64;96.94;98827.85;102323;1315;138086;-71
2022/10/08 00:52:52;;;;;;;35.20;21.70;;;;;;;9.62;97.63;98821.66;102639;1313;26530;-69
2022/10/08 00:55:26;;;;;;;29.00;21.70;;;;;;;9.61;98.07;98820.91;102545;1313;138028;-70
2022/10/08 00:58:00;;;;;;;32.20;22.10;;;;;;;9.61;98.06;98816.60;102785;1314;25299;-69
2022/10/08 01:00:32;;;;;;;32.80;22.80;;;;;;;9.61;98.34;98812.84;102722;1293;22466;-71
2022/10/08 01:02:59;;;;;;;31.00;22.30;;;;;;;9.61;98.58;98812.54;102686;1298;22880;-71
2022/10/08 01:06:02;;;;;;;35.10;23.70;;;;;;;9.62;98.83;98811.65;102563;1315;25318;-69
2022/10/08 01:08:38;;;;;;;31.90;21.70;;;;;;;9.64;98.96;98810.39;102265;1293;138001;-70
2022/10/08 01:11:19;;;;;;;34.50;22.50;;;;;;;9.64;98.89;98803.70;102647;1300;24420;-71
2022/10/08 01:14:29;;;;;;;32.60;22.50;;;;;;;9.66;99.18;98802.77;102525;1298;138003;-69
2022/10/08 01:17:37;;;;;;;34.20;22.50;;;;;;;9.68;99.52;98798.54;102713;1314;22478;-69
2022/10/08 01:20:14;;;;;;;28.80;20.70;;;;;;;9.69;99.78;98797.26;102337;1309;138335;-69
2022/10/08 01:23:06;;;;;;;32.10;22.40;;;;;;;9.71;99.77;98794.45;102556;1314;22694;-71
2022/10/08 01:25:51;;;;;;;31.50;21.60;;;;;;;9.72;99.82;98793.91;102384;1315;138099;-70
2022/10/08 01:28:36;;;;;;;30.80;22.00;;;;;;;9.73;99.57;98790.06;102563;1315;22479;-70
2022/10/08 01:31:03;;;;;;;36.60;21.60;;;;;;;9.71;99.23;98789.52;102439;1315;138308;-69
2022/10/08 01:33:47;;;;;;;29.30;20.80;;;;;;;9.68;98.92;98787.94;102711;1314;22625;-69
2022/10/08 01:36:17;;;;;;;28.50;18.80;;;;;;;9.62;97.88;98784.67;102767;1300;22569;-69
2022/10/08 01:38:49;;;;;;;25.70;18.60;;;;;;;9.52;96.90;98783.68;102639;1292;138926;-70
2022/10/08 01:41:17;;;;;;;29.60;20.00;;;;;;;9.45;97.00;98780.17;102712;1314;24274;-70
2022/10/08 01:44:03;;;;;;;27.00;19.40;;;;;;;9.40;97.06;98781.12;102530;1314;138051;-71
2022/10/08 01:46:35;;;;;;;27.50;19.10;;;;;;;9.36;97.14;98785.48;102498;1300;22498;-70
2022/10/08 01:49:09;;;;;;;26.20;18.20;;;;;;;9.33;97.43;98782.55;102423;1301;138254;-69
2022/10/08 01:51:43;;;;;;;26.70;18.30;;;;;;;9.30;97.30;98778.58;102545;1310;22473;-69
2022/10/08 01:54:15;;;;;;;28.50;20.10;;;;;;;9.26;97.33;98779.50;102603;1300;23362;-70
2022/10/08 01:56:45;;;;;;;30.70;19.90;;;;;;;9.24;97.29;98781.55;102472;1314;138074;-71
2022/10/08 01:59:21;;;;;;;30.50;20.20;;;;;;;9.20;97.02;98780.33;102555;1314;23927;-72
2022/10/08 02:01:57;;;;;;;26.50;17.90;;;;;;;9.16;97.14;98777.20;102356;1307;138065;-71
2022/10/08 02:04:33;;;;;;;27.80;18.20;;;;;;;9.12;96.98;98776.05;102467;1296;22765;-71
2022/10/08 02:07:13;;;;;;;23.20;18.20;;;;;;;9.08;96.83;98772.95;102350;1315;138226;-72
2022/10/08 02:10:01;;;;;;;28.40;19.20;;;;;;;9.05;97.02;98770.27;102369;1300;22474;-71
2022/10/08 02:12:28;;;;;;;27.90;19.90;;;;;;;9.03;97.11;98772.27;102418;1314;24771;-70
2022/10/08 02:14:57;;;;;;;25.80;18.90;;;;;;;9.01;97.15;98766.67;102332;1309;138015;-71
2022/10/08 02:17:38;;;;;;;30.60;19.60;;;;;;;8.97;96.82;98768.28;102490;1314;23219;-70
2022/10/08 02:20:34;;;;;;;30.70;19.00;;;;;;;8.91;96.77;98769.58;102310;1314;138320;-70
2022/10/08 02:23:12;;;;;;;26.40;18.30;;;;;;;8.86;96.85;98764.77;102350;1300;22628;-71
2022/10/08 02:25:57;;;;;;;27.60;18.40;;;;;;;8.81;96.53;98764.11;102294;1314;138659;-73
2022/10/08 02:28:33;;;;;;;26.00;17.40;;;;;;;8.75;96.21;98763.50;102428;1307;22625;-70
2022/10/08 02:31:15;;;;;;;28.00;19.00;;;;;;;8.68;95.87;98765.89;102357;1299;138235;-70
2022/10/08 02:33:53;;;;;;;29.00;18.90;;;;;;;8.61;95.92;98765.25;102366;1315;22717;-73
2022/10/08 02:36:27;;;;;;;31.20;19.30;;;;;;;8.55;96.03;98769.70;102697;1308;22485;-71
2022/10/08 02:39:02;;;;;;;29.10;19.60;;;;;;;8.52;96.30;98764.84;102371;1314;137881;-74
2022/10/08 02:41:35;;;;;;;28.30;19.70;;;;;;;8.49;96.29;98765.91;102426;1306;22476;-76
2022/10/08 02:44:08;;;;;;;29.10;18.90;;;;;;;8.46;96.82;98760.94;102421;1314;138135;-70
2022/10/08 02:46:38;;;;;;;26.30;17.30;;;;;;;8.44;97.08;98764.04;102802;1314;22534;-70
2022/10/08 02:49:23;;;;;;;27.90;18.10;;;;;;;8.41;97.24;98759.75;102367;1309;138298;-70
2022/10/08 02:51:52;;;;;;;29.20;19.30;;;;;;;8.40;97.43;98763.26;102571;1300;25310;-70
2022/10/08 02:54:20;;;;;;;;;;;;;;;8.37;97.46;98763.74;102596;1315;22664;-70
2022/10/08 02:56:56;;;;;;;27.60;18.20;;;;;;;8.35;97.60;98769.02;102539;1307;125928;-70
2022/10/08 02:59:24;;;;;;;28.10;17.00;;;;;;;8.32;97.64;98767.96;102668;1312;22560;-70
2022/10/08 03:01:59;;;;;;;26.60;17.60;;;;;;;8.30;97.89;98767.30;102463;1312;214377;-71
2022/10/08 03:04:35;;;;;;;23.80;16.20;;;;;;;8.29;98.12;98768.04;102644;1313;22533;-70
2022/10/08 03:07:03;;;;;;;25.80;18.00;;;;;;;8.28;98.19;98764.94;102413;1315;138392;-71
2022/10/08 03:09:37;;;;;;;24.40;16.90;;;;;;;8.28;98.27;98764.20;102523;1291;25403;-70
2022/10/08 03:12:05;;;;;;;23.40;16.20;;;;;;;8.27;98.33;98763.20;102582;1315;25591;-71
2022/10/08 03:14:38;;;;;;;26.20;17.60;;;;;;;8.28;98.50;98763.40;102366;1315;138246;-71
2022/10/08 03:17:06;;;;;;;23.50;16.90;;;;;;;8.28;98.59;98764.03;102680;1294;25419;-71
2022/10/08 03:19:34;;;;;;;25.40;17.00;;;;;;;8.27;98.70;98759.40;102483;1314;138181;-71
2022/10/08 03:22:01;;;;;;;29.40;17.70;;;;;;;8.29;98.69;98765.33;102592;1312;22496;-71
2022/10/08 03:24:28;;;;;;;22.50;16.10;;;;;;;8.29;98.83;98766.62;102673;1308;23627;-71
2022/10/08 03:26:55;;;;;;;21.30;15.80;;;;;;;8.30;98.95;98765.77;102410;1315;138543;-71
2022/10/08 03:29:22;;;;;;;26.90;18.20;;;;;;;8.29;98.75;98765.60;102573;1315;22482;-70
2022/10/08 03:31:49;;;;;;;22.90;16.80;;;;;;;8.28;98.85;98763.02;102288;1301;138172;-72
2022/10/08 03:34:16;;;;;;;24.70;16.60;;;;;;;8.25;98.18;98762.69;102409;1315;22558;-71
2022/10/08 03:36:43;;;;;;;21.00;15.90;;;;;;;8.18;97.20;98758.61;102362;1300;138281;-74
2022/10/08 03:39:11;;;;;;;24.50;15.90;;;;;;;8.11;97.10;98757.54;102441;1300;22481;-71
2022/10/08 03:41:38;;;;;;;31.40;16.70;;;;;;;8.08;97.48;98768.66;102489;1313;22899;-75
2022/10/08 03:44:09;;;;;;;29.80;18.30;;;;;;;8.07;97.82;98768.30;102426;1313;138058;-73
2022/10/08 03:46:36;;;;;;;22.80;16.90;;;;;;;8.07;98.34;98762.58;102492;1291;25338;-75
2022/10/08 03:49:03;;;;;;;27.50;17.90;;;;;;;8.07;98.60;98759.40;102278;1315;138021;-73
2022/10/08 03:51:30;;;;;;;27.60;18.40;;;;;;;8.08;98.91;98754.42;102313;1315;22485;-75
2022/10/08 03:53:58;;;;;;;26.30;18.10;;;;;;;8.08;98.54;98758.77;102416;1315;24453;-76
2022/10/08 03:56:26;;;;;;;24.70;18.00;;;;;;;8.07;98.63;98758.16;102316;1298;137954;-70
2022/10/08 03:58:56;;;;;;;30.80;17.30;;;;;;;8.07;98.79;98752.52;102425;1313;25280;-71
2022/10/08 04:01:25;;;;;;;24.60;16.90;;;;;;;8.07;98.90;98759.29;102462;1299;138468;-72
2022/10/08 04:03:52;;;;;;;23.70;16.70;;;;;;;8.05;98.85;98749.92;102378;1296;25413;-70
2022/10/08 04:06:19;;;;;;;26.90;17.40;;;;;;;8.05;98.97;98755.55;102504;1314;23058;-70
2022/10/08 04:08:46;;;;;;;29.60;18.20;;;;;;;8.05;98.91;98755.05;102336;1315;137888;-69
2022/10/08 04:11:15;;;;;;;27.50;16.30;;;;;;;8.02;98.64;98756.52;102394;1315;24058;-72
2022/10/08 04:13:43;;;;;;;20.80;14.60;;;;;;;7.97;97.96;98758.92;102346;1307;137961;-71
2022/10/08 04:16:18;;;;;;;23.50;15.30;;;;;;;7.90;97.76;98762.71;102587;1301;22507;-70
2022/10/08 04:18:46;;;;;;;23.50;14.50;;;;;;;7.86;97.85;98765.00;102368;1307;138059;-71
2022/10/08 04:21:17;;;;;;;22.50;14.60;;;;;;;7.83;97.84;98763.40;102556;1291;25311;-71
2022/10/08 04:23:45;;;;;;;21.40;13.80;;;;;;;7.80;97.79;98759.69;102463;1304;25397;-72
2022/10/08 04:26:13;;;;;;;22.80;14.30;;;;;;;7.77;97.40;98757.59;103561;1297;138068;-69
2022/10/08 04:28:43;;;;;;;22.90;14.60;;;;;;;7.73;97.19;98760.92;102459;1315;22668;-76
2022/10/08 04:31:17;;;;;;;18.40;14.10;;;;;;;7.69;97.01;98758.56;102307;1315;138604;-71
2022/10/08 04:33:46;;;;;;;21.70;14.80;;;;;;;7.65;96.86;98757.96;102538;1315;22475;-71
2022/10/08 04:36:18;;;;;;;22.80;15.20;;;;;;;7.63;96.87;98756.35;102383;1294;25465;-70
2022/10/08 04:38:46;;;;;;;20.00;14.90;;;;;;;7.60;97.41;98753.70;102331;1313;137927;-70
2022/10/08 04:41:18;;;;;;;24.20;15.30;;;;;;;7.58;97.22;98752.17;102286;1314;24470;-72
2022/10/08 04:43:46;;;;;;;21.60;15.30;;;;;;;7.57;97.57;98752.48;102365;1313;138012;-73
2022/10/08 04:46:16;;;;;;;20.30;14.20;;;;;;;7.57;97.72;98748.67;102498;1289;24680;-70
2022/10/08 04:48:48;;;;;;;26.70;16.90;;;;;;;7.56;97.68;98752.36;102609;1306;138052;-74
2022/10/08 04:51:15;;;;;;;22.40;15.00;;;;;;;7.54;97.70;98747.99;102465;1302;22474;-71
2022/10/08 04:53:43;;;;;;;21.50;15.40;;;;;;;7.51;97.39;98747.52;102403;1315;24323;-71
2022/10/08 04:56:14;;;;;;;24.60;14.10;;;;;;;7.49;97.24;98752.23;102385;1296;138127;-71
2022/10/08 04:58:42;;;;;;;21.40;14.30;;;;;;;7.44;96.92;98751.85;102404;1313;22501;-71
2022/10/08 05:01:12;;;;;;;19.40;14.30;;;;;;;7.39;97.16;98751.34;102633;1308;138188;-70
2022/10/08 05:03:41;;;;;;;23.30;14.30;;;;;;;7.37;97.43;98752.01;102463;1292;25347;-71
2022/10/08 05:06:09;;;;;;;22.60;13.90;;;;;;;7.37;97.56;98750.46;102422;1311;25434;-73
2022/10/08 05:08:36;;;;;;;19.10;14.10;;;;;;;7.37;97.74;98752.34;102380;1299;137848;-74
2022/10/08 05:11:03;;;;;;;21.00;14.00;;;;;;;7.37;97.87;98746.96;102613;1301;25391;-73
2022/10/08 05:13:31;;;;;;;22.70;13.40;;;;;;;7.37;97.87;98743.13;103278;1298;138507;-71
2022/10/08 05:16:07;;;;;;;19.70;13.80;;;;;;;7.38;98.06;98745.42;102569;1315;22798;-71
2022/10/08 05:18:35;;;;;;;19.10;13.20;;;;;;;7.40;98.23;98745.11;102940;1293;24270;-70
2022/10/08 05:21:08;;;;;;;19.50;13.90;;;;;;;7.42;98.31;98747.57;102941;1302;22478;-71
2022/10/08 05:23:35;;;;;;;20.90;15.40;;;;;;;7.45;98.60;98746.45;102909;1290;25400;-72
2022/10/08 05:26:20;;;;;;;24.10;15.30;;;;;;;7.49;98.95;98750.35;102734;1299;137843;-70
2022/10/08 05:28:48;;;;;;;20.70;14.00;;;;;;;7.55;99.40;98753.16;102566;1291;22611;-70
2022/10/08 05:31:15;;;;;;;21.40;15.50;;;;;;;7.59;99.62;98757.97;102914;1286;138126;-69
2022/10/08 05:33:43;;;;;;;24.50;15.00;;;;;;;7.64;99.62;98758.02;102613;1300;22601;-70
2022/10/08 05:36:17;;;;;;;22.00;16.10;;;;;;;7.69;99.82;98764.29;102434;1300;25272;-71
2022/10/08 05:38:44;;;;;;;24.70;15.40;;;;;;;7.75;99.94;98764.11;102423;1300;137990;-69
2022/10/08 05:41:17;;;;;;;23.40;16.00;;;;;;;7.81;99.99;98768.63;102444;1314;22879;-72
2022/10/08 05:43:45;;;;;;;22.20;15.20;;;;;;;7.86;100.00;98771.68;102667;1290;138477;-71
2022/10/08 05:46:13;;;;;;;19.10;13.00;;;;;;;7.90;99.90;98776.91;102784;1306;24386;-71
2022/10/08 05:48:41;;;;;;;21.60;14.50;;;;;;;7.85;98.20;98780.15;102480;1314;138096;-69
2022/10/08 05:51:10;;;;;;;20.00;12.40;;;;;;;7.76;96.98;98778.91;102401;1315;22687;-71
2022/10/08 05:53:39;;;;;;;21.20;12.90;;;;;;;7.72;97.29;98779.48;103436;1290;22478;-72
2022/10/08 05:56:09;;;;;;;19.50;13.00;;;;;;;7.71;97.27;98781.63;102382;1315;137958;-70
2022/10/08 05:58:38;;;;;;;21.40;13.20;;;;;;;7.71;97.37;98784.29;102564;1315;22676;-71
2022/10/08 06:01:14;;;;;;;19.30;14.10;;;;;;;7.71;97.29;98783.97;102469;1308;138254;-71
2022/10/08 06:03:42;;;;;;;19.10;13.60;;;;;;;7.72;97.51;98788.16;102491;1313;24664;-71
2022/10/08 06:06:10;;;;;;;17.30;13.10;;;;;;;7.75;97.99;98784.96;102379;1293;23902;-70
2022/10/08 06:08:37;;;;;;;18.80;13.40;;;;;;;7.79;98.03;98784.23;102289;1313;137958;-75
2022/10/08 06:11:05;;;;;;;18.80;12.50;;;;;;;7.82;98.07;98788.52;102529;1290;24274;-74
2022/10/08 06:13:32;;;;;;;20.50;13.00;;;;;;;7.85;97.91;98785.04;102404;1300;137942;-71
2022/10/08 06:16:05;;;;;;;17.70;13.00;;;;;;;7.90;98.21;98784.61;102608;1315;23884;-73
2022/10/08 06:18:35;;;;;;;18.40;12.80;;;;;;;7.95;98.38;98785.41;102403;1300;23473;-69
2022/10/08 06:21:05;;;;;;;16.70;12.20;;;;;;;8.00;98.60;98786.84;102442;1306;22952;-70
2022/10/08 06:23:31;;;;;;;15.40;12.50;;;;;;;8.05;98.21;98789.39;103172;1313;24332;-72
2022/10/08 06:26:07;;;;;;;15.70;11.10;;;;;;;8.09;98.42;98787.67;102636;1283;138326;-71
2022/10/08 06:28:35;;;;;;;18.70;11.90;;;;;;;8.14;98.19;98787.36;103221;1293;25545;-70
2022/10/08 06:31:04;;;;;;;14.60;11.10;;;;;;;8.18;98.20;98788.90;103260;1307;138359;-71
2022/10/08 06:33:32;;;;;;;23.40;11.70;;;;;;;8.24;98.36;98785.98;103644;1296;22523;-70
2022/10/08 06:36:13;;;;;;;17.30;10.20;;;;;;;8.29;98.36;98785.14;103327;1291;23235;-70
2022/10/08 06:38:40;;;;;;;15.90;11.50;;;;;;;8.35;98.32;98785.48;102474;1306;138220;-72
2022/10/08 06:41:07;;;;;;;15.70;11.20;;;;;;;8.42;98.40;98793.19;102957;1304;22616;-72
2022/10/08 06:43:34;;;;;;;18.80;12.90;;;;;;;8.47;98.53;98795.98;102623;1299;138283;-71
2022/10/08 06:46:05;;;;;;;21.60;13.10;;;;;;;8.53;98.46;98797.60;102557;1309;22562;-71
2022/10/08 06:48:32;;;;;;;19.90;13.20;;;;;;;8.59;98.13;98799.27;102526;1290;22664;-71
2022/10/08 06:51:02;;;;;;;17.60;12.80;;;;;;;8.62;98.21;98803.78;102381;1314;138160;-72
2022/10/08 06:53:29;;;;;;;;;;;;;;;8.68;98.61;98799.63;103117;1307;22469;-72
2022/10/08 06:56:04;;;;;;;27.70;15.00;;;;;;;8.75;98.76;98808.52;103034;1300;124649;-73
2022/10/08 06:58:34;;;;;;;21.30;14.70;;;;;;;8.82;98.86;98802.80;102782;1292;22713;-72
2022/10/08 07:01:01;;;;;;;22.00;15.20;;;;;;;8.89;99.10;98801.67;102535;1313;138213;-74
2022/10/08 07:03:28;;;;;;;22.50;16.50;;;;;;;8.98;99.18;98800.04;102528;1293;22629;-71
2022/10/08 07:05:58;;;;;;;24.80;16.60;;;;;;;9.06;99.41;98792.95;102725;1314;22539;-71
2022/10/08 07:08:26;;;;;;;26.50;17.40;;;;;;;9.16;99.63;98791.59;102368;1299;138139;-71
2022/10/08 07:10:53;;;;;;;29.00;18.40;;;;;;;9.25;99.96;98786.38;102709;1313;22508;-72
2022/10/08 07:13:21;;;;;;;28.50;17.90;;;;;;;9.36;99.94;98790.10;102458;1315;138246;-73
2022/10/08 07:15:47;;;;;;;33.50;18.10;;;;;;;9.46;100.00;98791.63;102394;1291;22480;-73
2022/10/08 07:18:15;;;;;;;26.80;18.10;;;;;;;9.57;100.00;98787.59;102551;1315;22624;-73
2022/10/08 07:20:41;;;;;;;30.20;19.90;;;;;;;9.68;100.00;98786.23;102381;1313;138258;-72
2022/10/08 07:23:08;;;;;;;31.20;19.40;;;;;;;9.78;100.00;98786.99;102620;1306;25396;-71
2022/10/08 07:25:35;;;;;;;29.40;19.70;;;;;;;9.87;100.00;98784.90;102351;1296;138886;-72
2022/10/08 07:28:02;;;;;;;25.10;17.70;;;;;;;9.98;100.00;98787.12;102368;1313;25489;-73
2022/10/08 07:30:31;;;;;;;33.70;18.40;;;;;;;10.07;100.00;98779.77;103179;1290;25240;-72
2022/10/08 07:32:59;;;;;;;;;;;;;;;10.18;100.00;98782.50;103007;1291;138371;-72
2022/10/08 07:35:28;;;;;;;27.90;18.60;;;;;;;10.27;100.00;98786.45;102878;1308;23771;-74
2022/10/08 07:37:55;;;;;;;21.30;12.70;;;;;;;10.39;100.00;98785.27;102449;1308;138597;-76
2022/10/08 07:40:21;;;;;;;27.10;18.00;;;;;;;10.53;100.00;98781.52;102405;1300;25538;-73
2022/10/08 07:42:48;;;;;;;29.80;16.30;;;;;;;10.67;100.00;98784.78;103154;1313;138949;-79
2022/10/08 07:45:16;;;;;;;25.60;17.90;;;;;;;10.79;99.88;98782.01;102568;1306;25234;-74
2022/10/08 07:47:43;;;;;;;27.50;17.60;;;;;;;10.90;99.85;98778.98;102384;1314;22466;-72
2022/10/08 07:50:10;;;;;;;23.50;17.60;;;;;;;11.00;99.41;98777.49;102306;1292;138241;-71
2022/10/08 07:52:37;;;;;;;23.30;16.60;;;;;;;11.09;99.36;98772.74;102394;1314;22637;-73
2022/10/08 07:55:04;;;;;;;25.50;16.80;;;;;;;11.18;99.07;98773.70;102328;1315;138400;-74
2022/10/08 07:57:31;;;;;;;26.10;16.60;;;;;;;11.28;98.81;98771.98;102380;1298;22615;-73
2022/10/08 07:59:58;;;;;;;23.70;15.50;;;;;;;11.37;98.58;98773.25;102413;1315;24268;-74
2022/10/08 08:02:24;;;;;;;25.70;17.30;;;;;;;11.48;98.36;98770.17;102277;1314;138710;-74
2022/10/08 08:04:51;;;;;;;24.20;17.00;;;;;;;11.57;98.52;98763.91;102424;1312;22472;-72
2022/10/08 08:07:18;;;;;;;26.60;16.60;;;;;;;11.69;98.38;98767.73;102449;1296;138448;-77
2022/10/08 08:09:45;;;;;;;26.50;16.40;;;;;;;11.80;97.87;98765.16;102413;1293;22469;-76
2022/10/08 08:12:12;;;;;;;26.20;15.90;;;;;;;11.93;97.66;98767.92;102397;1310;24086;-73
2022/10/08 08:14:39;;;;;;;21.00;16.00;;;;;;;12.04;97.55;98764.68;102168;1315;138512;-73
2022/10/08 08:17:06;;;;;;;23.50;16.00;;;;;;;12.17;97.16;98767.95;102359;1315;22683;-73
2022/10/08 08:19:33;;;;;;;23.60;15.70;;;;;;;12.28;96.73;98765.67;102266;1309;138336;-75
2022/10/08 08:22:00;;;;;;;21.00;16.30;;;;;;;12.39;96.19;98767.43;102393;1307;22470;-77
2022/10/08 08:24:26;;;;;;;25.00;15.20;;;;;;;12.51;95.86;98762.10;102447;1313;22604;-73
2022/10/08 08:26:53;;;;;;;22.40;15.70;;;;;;;12.63;95.77;98760.26;102306;1314;138333;-72
2022/10/08 08:29:20;;;;;;;26.80;15.40;;;;;;;12.76;95.39;98758.02;102429;1314;22491;-73
2022/10/08 08:31:48;;;;;;;21.00;14.50;;;;;;;12.88;95.02;98756.55;102298;1303;138262;-73
2022/10/08 08:34:20;;;;;;;19.40;15.00;;;;;;;13.01;94.31;98761.03;102502;1313;25412;-76
2022/10/08 08:36:49;;;;;;;19.90;13.80;;;;;;;13.13;93.66;98754.58;102320;1315;138576;-72
2022/10/08 08:39:25;;;;;;;18.00;13.30;;;;;;;13.27;93.08;98757.10;102423;1315;23078;-73
2022/10/08 08:42:19;;;;;;;16.40;13.40;;;;;;;13.40;92.45;98756.63;102417;1309;22472;-73
2022/10/08 08:44:48;;;;;;;18.90;14.00;;;;;;;13.56;91.91;98752.86;102383;1314;138328;-74
2022/10/08 08:47:21;;;;;;;;;;;;;;;13.69;91.49;98751.02;102482;1313;24287;-73
2022/10/08 08:49:53;;;;;;;18.00;12.90;;;;;;;13.81;90.94;98750.43;102397;1314;124270;-73
2022/10/08 08:52:33;;;;;;;15.00;11.80;;;;;;;13.95;90.53;98752.36;102536;1313;22478;-74
2022/10/08 08:55:00;;;;;;;16.70;11.20;;;;;;;14.08;89.68;98752.70;102312;1315;138528;-74
2022/10/08 08:57:37;;;;;;;14.50;10.00;;;;;;;14.20;88.82;98748.92;102480;1315;22476;-73
2022/10/08 09:00:18;;;;;;;19.80;10.80;;;;;;;14.34;87.68;98750.73;102422;1315;22609;-73
2022/10/08 09:03:09;;;;;;;16.30;11.30;;;;;;;14.49;86.81;98748.64;102265;1313;138455;-73
2022/10/08 09:05:41;;;;;;;14.80;10.50;;;;;;;14.65;85.96;98749.55;102471;1313;22475;-75
2022/10/08 09:08:21;;;;;;;14.20;11.40;;;;;;;14.79;85.87;98742.12;102430;1290;138523;-74
2022/10/08 09:10:56;;;;;;;14.40;10.00;;;;;;;14.94;85.36;98745.54;102421;1290;23296;-73
2022/10/08 09:13:29;;;;;;;14.40;9.50;;;;;;;15.08;83.87;98740.45;102408;1290;138382;-74
2022/10/08 09:15:56;;;;;;;13.80;9.70;;;;;;;15.22;83.83;98733.86;102471;1315;24283;-75
2022/10/08 09:18:23;;;;;;;10.40;7.80;;;;;;;15.35;82.90;98739.23;102357;1315;24501;-78
2022/10/08 09:20:50;;;;;;;10.80;8.60;;;;;;;15.48;82.13;98735.66;102273;1315;138302;-75
2022/10/08 09:23:19;;;;;;;12.60;8.60;;;;;;;15.66;81.83;98739.81;102451;1308;22873;-76
2022/10/08 09:26:06;;;;;;;12.60;7.80;;;;;;;15.84;80.40;98734.99;102290;1313;138339;-76
2022/10/08 09:28:43;;;;;;;8.30;6.60;;;;;;;16.04;79.49;98738.41;102456;1313;25356;-75
2022/10/08 09:31:32;;;;;;;11.40;6.90;;;;;;;16.23;78.74;98738.91;102371;1293;138706;-75
2022/10/08 09:34:14;;;;;;;9.70;6.20;;;;;;;16.42;77.90;98740.10;102108;1319;24377;-77
2022/10/08 09:36:53;;;;;;;9.70;5.90;;;;;;;16.58;76.73;98737.56;101939;1318;138517;-76
2022/10/08 09:39:24;;;;;;;13.80;6.30;;;;;;;16.74;76.32;98727.23;101954;1318;25320;-75
2022/10/08 09:42:06;;;;;;;8.00;5.70;;;;;;;16.85;75.44;98722.55;101912;1317;22488;-73
2022/10/08 09:44:43;;;;;;;7.00;5.20;;;;;;;16.98;75.44;98721.14;102190;1316;138813;-75
2022/10/08 09:47:18;;;;;;;7.30;5.10;;;;;;;17.11;74.28;98719.73;102127;1319;24028;-73
2022/10/08 09:50:00;;;;;;;6.70;5.50;;;;;;;17.21;72.87;98719.85;102060;1319;138059;-73
2022/10/08 09:52:28;;;;;;;12.00;5.90;;;;;;;17.30;71.60;98713.59;102156;1319;22605;-75
2022/10/08 09:55:01;;;;;;;7.30;5.10;;;;;;;17.36;71.18;98708.32;102251;1313;138405;-72
2022/10/08 09:57:30;;;;;;;8.30;5.30;;;;;;;17.46;71.04;98704.90;102033;1318;22646;-74
2022/10/08 09:59:58;;;;;;;;;;;;;;;17.56;71.02;98703.02;102132;1295;25337;-75
2022/10/08 10:02:37;;;;;;;6.80;5.50;;;;;;;17.65;70.99;98700.38;101728;1319;124738;-72
2022/10/08 10:05:17;;;;;;;6.50;4.90;;;;;;;17.75;69.61;98696.56;101909;1290;25440;-72
2022/10/08 10:07:45;;;;;;;6.00;4.50;;;;;;;17.85;68.71;98692.48;101905;1319;138258;-73
2022/10/08 10:10:27;;;;;;;5.80;4.40;;;;;;;17.93;68.19;98689.27;101952;1318;24210;-73
2022/10/08 10:13:05;;;;;;;8.60;4.80;;;;;;;18.03;68.33;98687.02;102413;1315;138620;-73
2022/10/08 10:15:57;;;;;;;11.70;5.10;;;;;;;18.11;67.87;98686.40;102456;1313;22659;-72
2022/10/08 10:18:47;;;;;;;6.30;4.60;;;;;;;18.21;67.61;98686.86;102487;1314;25337;-74
2022/10/08 10:21:22;;;;;;;6.50;4.80;;;;;;;18.33;67.36;98685.70;102426;1315;22487;-73
2022/10/08 10:24:02;;;;;;;8.30;5.10;;;;;;;18.43;66.68;98684.39;102509;1292;22518;-72
2022/10/08 10:26:36;;;;;;;7.70;5.00;;;;;;;18.53;65.99;98680.71;102348;1315;138123;-71
2022/10/08 10:29:19;;;;;;;7.70;4.90;;;;;;;18.62;65.84;98678.23;102509;1314;22471;-71
2022/10/08 10:31:59;;;;;;;6.10;4.70;;;;;;;18.73;66.27;98671.77;102388;1300;138485;-72
2022/10/08 10:34:28;;;;;;;9.50;4.40;;;;;;;18.86;65.30;98670.66;102449;1301;24330;-72
2022/10/08 10:37:02;;;;;;;25.20;11.00;;;;;;;18.94;65.00;98665.86;102354;1315;137842;-72
2022/10/08 10:39:39;;;;;;;10.90;6.70;;;;;;;19.05;64.98;98662.20;102416;1306;22862;-71
2022/10/08 10:42:25;;;;;;;7.30;5.00;;;;;;;19.17;64.44;98661.48;102668;1313;22487;-72
2022/10/08 10:45:00;;;;;;;7.60;4.60;;;;;;;19.28;63.78;98657.20;102334;1313;137353;-72
2022/10/08 10:47:30;;;;;;;7.90;4.10;;;;;;;19.37;63.24;98656.25;102443;1315;22508;-73
2022/10/08 10:50:00;;;;;;;6.30;4.10;;;;;;;19.45;62.40;98654.31;102355;1315;137366;-73
2022/10/08 10:53:08;;;;;;;5.80;3.70;;;;;;;19.51;62.07;98649.08;102500;1315;22546;-75
2022/10/08 10:56:15;;;;;;;6.60;4.30;;;;;;;19.61;61.66;98646.84;102489;1313;137416;-72
2022/10/08 10:58:41;;;;;;;6.10;4.10;;;;;;;19.70;61.26;98641.66;102456;1291;24178;-72
2022/10/08 11:01:11;;;;;;;9.10;4.70;;;;;;;19.77;60.83;98636.11;102373;1313;137836;-73
2022/10/08 11:03:50;;;;;;;6.10;3.90;;;;;;;19.85;60.19;98634.70;102409;1313;22810;-71
2022/10/08 11:06:38;;;;;;;4.40;4.00;;;;;;;19.92;60.20;98631.76;102472;1290;22535;-72
2022/10/08 11:09:15;;;;;;;5.90;3.90;;;;;;;20.03;60.31;98626.38;102365;1315;137170;-71
2022/10/08 11:11:48;;;;;;;3.90;3.40;;;;;;;20.14;60.27;98627.79;102397;1313;23211;-71
2022/10/08 11:14:30;;;;;;;6.30;4.00;;;;;;;20.22;59.40;98624.89;102571;1313;137562;-72
2022/10/08 11:17:24;;;;;;;5.90;4.00;;;;;;;20.29;59.51;98620.44;104196;1312;23926;-72
2022/10/08 11:19:54;;;;;;;5.40;4.00;;;;;;;20.36;58.77;98614.39;102586;1313;137413;-72
2022/10/08 11:22:28;;;;;;;5.60;4.00;;;;;;;20.43;59.17;98609.66;102725;1313;22620;-71
2022/10/08 11:24:58;;;;;;;8.20;4.20;;;;;;;20.51;58.44;98606.73;102573;1313;137467;-71
2022/10/08 11:28:09;;;;;;;7.70;3.90;;;;;;;20.57;58.61;98605.73;102656;1313;22534;-71
2022/10/08 11:30:54;;;;;;;5.30;4.00;;;;;;;20.65;57.96;98603.51;102520;1314;25359;-71
2022/10/08 11:33:22;;;;;;;5.20;4.10;;;;;;;20.72;57.99;98597.72;102624;1313;22607;-71
2022/10/08 11:36:18;;;;;;;5.00;4.20;;;;;;;20.82;58.53;98597.28;102796;1313;22733;-72
2022/10/08 11:39:12;;;;;;;7.30;4.30;;;;;;;20.95;58.06;98592.10;102858;1312;137313;-72
2022/10/08 11:41:56;;;;;;;6.60;4.00;;;;;;;21.00;57.08;98588.88;102820;1312;22521;-72